createdAt,value
2023-02-23T00:05:30.059Z,39.70
2023-02-23T00:15:30.045Z,37.40
2023-02-23T00:25:30.057Z,41.60
2023-02-23T00:35:30.044Z,43.90
2023-02-23T00:45:30.102Z,43.10
2023-02-23T00:55:30.077Z,40.00
2023-02-23T01:05:30.142Z,42.70
2023-02-23T01:15:30.101Z,40.90
2023-02-23T01:25:30.161Z,41.60
2023-02-23T01:35:30.072Z,45.50
2023-02-23T01:45:30.093Z,37.10
2023-02-23T01:55:30.127Z,40.30
2023-02-23T02:05:30.123Z,38.50
2023-02-23T02:15:30.177Z,48.90
2023-02-23T02:25:30.200Z,45.20
2023-02-23T02:35:30.119Z,40.70
2023-02-23T02:45:30.135Z,40.20
2023-02-23T02:55:30.129Z,48.90
2023-02-23T03:05:30.270Z,48.70
2023-02-23T03:15:30.140Z,50.00
2023-02-23T03:25:30.121Z,45.90
2023-02-23T03:35:30.139Z,52.40
2023-02-23T03:45:30.224Z,48.40
2023-02-23T03:55:30.141Z,48.30
2023-02-23T04:05:30.119Z,39.90
2023-02-23T04:15:30.153Z,44.40
2023-02-23T04:25:30.164Z,38.10
2023-02-23T04:35:30.157Z,48.10
2023-02-23T04:45:30.252Z,54.30
2023-02-23T04:55:30.146Z,37.40
2023-02-23T05:05:30.180Z,34.40
2023-02-23T05:15:30.157Z,47.00
2023-02-23T05:25:30.169Z,42.30
2023-02-23T05:35:30.248Z,47.70
2023-02-23T05:45:30.157Z,38.90
2023-02-23T05:55:30.171Z,37.00
2023-02-23T06:05:30.154Z,51.10
2023-02-23T06:15:30.168Z,47.60
2023-02-23T06:25:30.214Z,50.60
2023-02-23T06:35:30.182Z,46.80
2023-02-23T06:45:30.217Z,47.40
2023-02-23T06:55:30.194Z,52.10
2023-02-23T07:05:30.173Z,55.00
2023-02-23T07:15:30.187Z,57.00
2023-02-23T07:25:30.158Z,52.10
2023-02-23T07:35:30.209Z,54.10
2023-02-23T07:45:30.328Z,51.90
2023-02-23T07:55:30.238Z,49.20
2023-02-23T08:05:30.263Z,50.60
2023-02-23T08:15:30.225Z,60.20
2023-02-23T08:25:30.215Z,45.70
2023-02-23T08:35:30.200Z,51.40
2023-02-23T08:45:30.203Z,42.20
2023-02-23T08:55:30.207Z,54.40
2023-02-23T09:05:30.249Z,43.00
2023-02-23T09:15:30.209Z,51.00
2023-02-23T09:25:30.213Z,46.80
2023-02-23T09:35:30.338Z,49.00
2023-02-23T09:45:30.260Z,53.80
2023-02-23T09:55:30.245Z,47.40
2023-02-23T10:05:30.227Z,49.30
2023-02-23T10:15:30.259Z,42.80
2023-02-23T10:25:30.420Z,36.50
2023-02-23T10:35:30.292Z,38.10
2023-02-23T10:45:30.263Z,32.20
2023-02-23T10:55:30.403Z,36.40
2023-02-23T11:05:30.537Z,41.10
2023-02-23T11:15:48.060Z,39.80
2023-02-23T11:25:30.258Z,38.50
2023-02-23T11:35:30.297Z,37.60
2023-02-23T11:45:30.266Z,44.10
2023-02-23T11:55:30.329Z,33.60
2023-02-23T12:05:30.330Z,35.10
2023-02-23T12:15:30.291Z,33.90
2023-02-23T12:25:30.305Z,36.10
2023-02-23T12:35:31.279Z,33.10
2023-02-23T12:45:30.295Z,31.70
2023-02-23T12:55:30.288Z,37.10
2023-02-23T13:05:30.466Z,31.50
2023-02-23T13:15:30.337Z,35.40
2023-02-23T13:25:30.346Z,39.70
2023-02-23T13:35:30.342Z,35.90
2023-02-23T13:45:30.359Z,32.90
2023-02-23T13:55:43.353Z,34.60
2023-02-23T14:05:30.604Z,37.70
2023-02-23T14:15:30.355Z,38.50
2023-02-23T14:25:30.325Z,37.50
2023-02-23T14:35:30.402Z,38.10
2023-02-23T14:45:30.368Z,42.70
2023-02-23T14:55:30.372Z,44.30
2023-02-23T15:05:30.367Z,32.00
2023-02-23T15:15:30.365Z,40.30
2023-02-23T15:35:30.370Z,41.10
2023-02-23T15:45:30.435Z,41.20
2023-02-23T15:55:30.351Z,43.60
2023-02-23T16:05:35.306Z,45.50
2023-02-23T16:15:30.388Z,44.60
2023-02-23T16:25:30.397Z,38.70
2023-02-23T16:35:30.372Z,45.20
2023-02-23T16:45:30.558Z,48.30
2023-02-23T16:55:30.395Z,43.00
2023-02-23T17:05:30.509Z,47.00
2023-02-23T17:15:30.424Z,45.30
2023-02-23T17:25:30.406Z,50.80
2023-02-23T17:35:30.400Z,50.60
2023-02-23T17:45:30.429Z,32.70
2023-02-23T17:55:30.445Z,52.60
2023-02-23T18:05:30.428Z,51.70
2023-02-23T18:15:30.436Z,62.80
2023-02-23T18:25:30.448Z,62.80
2023-02-23T18:35:30.417Z,44.70
2023-02-23T18:45:30.445Z,56.20
2023-02-23T18:55:30.530Z,62.30
2023-02-23T19:05:30.492Z,60.80
2023-02-23T19:15:30.430Z,68.00
2023-02-23T19:25:30.492Z,77.20
2023-02-23T19:35:30.428Z,70.60
2023-02-23T19:45:30.539Z,75.80
2023-02-23T19:55:30.467Z,80.10
2023-02-23T20:05:30.456Z,87.80
2023-02-23T20:15:30.463Z,70.60
2023-02-23T20:25:30.482Z,76.40
2023-02-23T20:35:30.497Z,69.90
2023-02-23T20:45:30.462Z,66.30
2023-02-23T20:55:30.496Z,72.80
2023-02-23T21:05:30.476Z,76.70
2023-02-23T21:15:30.546Z,71.00
2023-02-23T21:25:30.524Z,69.50
2023-02-23T21:35:30.486Z,70.20
2023-02-23T21:45:30.541Z,78.70
2023-02-23T21:55:30.545Z,68.60
2023-02-23T22:05:30.535Z,51.30
2023-02-23T22:15:30.711Z,63.60
2023-02-23T22:25:30.538Z,57.00
2023-02-23T22:35:30.518Z,53.90
2023-02-23T22:45:30.536Z,60.80
2023-02-23T22:55:30.564Z,56.50
2023-02-23T23:05:30.528Z,58.40
2023-02-23T23:15:30.512Z,59.90
2023-02-23T23:25:30.616Z,55.20
2023-02-23T23:35:30.676Z,57.70
2023-02-23T23:45:30.569Z,55.60
2023-02-23T23:55:30.564Z,68.30
